sensor_id;sensor_type;location;lat;lon;timestamp;P1;durP1;ratioP1;P2;durP2;ratioP2
56455;SDS011;42354;53.218;6.564;2023-07-31T00:01:32;11.15;;;6.45;;
56455;SDS011;42354;53.218;6.564;2023-07-31T00:03:57;8.07;;;5.25;;
56455;SDS011;42354;53.218;6.564;2023-07-31T00:06:23;11.07;;;6.20;;
56455;SDS011;42354;53.218;6.564;2023-07-31T00:08:48;12.55;;;6.50;;
56455;SDS011;42354;53.218;6.564;2023-07-31T00:11:13;15.00;;;5.97;;
56455;SDS011;42354;53.218;6.564;2023-07-31T00:13:39;9.73;;;6.60;;
56455;SDS011;42354;53.218;6.564;2023-07-31T00:16:05;9.57;;;6.53;;
56455;SDS011;42354;53.218;6.564;2023-07-31T00:18:31;9.82;;;6.13;;
56455;SDS011;42354;53.218;6.564;2023-07-31T00:20:56;9.30;;;5.93;;
56455;SDS011;42354;53.218;6.564;2023-07-31T00:23:22;9.60;;;6.25;;
56455;SDS011;42354;53.218;6.564;2023-07-31T00:25:47;11.80;;;5.55;;
56455;SDS011;42354;53.218;6.564;2023-07-31T00:28:12;8.57;;;5.30;;
56455;SDS011;42354;53.218;6.564;2023-07-31T00:30:38;9.85;;;5.40;;
56455;SDS011;42354;53.218;6.564;2023-07-31T00:33:03;8.75;;;4.72;;
56455;SDS011;42354;53.218;6.564;2023-07-31T00:35:29;16.40;;;5.28;;
56455;SDS011;42354;53.218;6.564;2023-07-31T00:37:55;6.22;;;3.92;;
56455;SDS011;42354;53.218;6.564;2023-07-31T00:40:21;8.15;;;4.13;;
56455;SDS011;42354;53.218;6.564;2023-07-31T00:42:47;6.43;;;4.13;;
56455;SDS011;42354;53.218;6.564;2023-07-31T00:45:12;6.68;;;4.78;;
56455;SDS011;42354;53.218;6.564;2023-07-31T00:47:37;6.57;;;4.32;;
56455;SDS011;42354;53.218;6.564;2023-07-31T00:50:03;5.80;;;4.10;;
56455;SDS011;42354;53.218;6.564;2023-07-31T00:52:30;5.78;;;3.47;;
56455;SDS011;42354;53.218;6.564;2023-07-31T00:54:55;13.10;;;4.63;;
56455;SDS011;42354;53.218;6.564;2023-07-31T00:57:21;7.05;;;4.57;;
56455;SDS011;42354;53.218;6.564;2023-07-31T00:59:46;8.48;;;4.68;;
56455;SDS011;42354;53.218;6.564;2023-07-31T01:02:12;9.10;;;4.63;;
56455;SDS011;42354;53.218;6.564;2023-07-31T01:04:37;5.88;;;4.30;;
56455;SDS011;42354;53.218;6.564;2023-07-31T01:07:10;5.53;;;4.15;;
56455;SDS011;42354;53.218;6.564;2023-07-31T01:09:47;4.85;;;4.00;;
56455;SDS011;42354;53.218;6.564;2023-07-31T01:12:23;9.50;;;4.65;;
56455;SDS011;42354;53.218;6.564;2023-07-31T01:15:02;9.07;;;5.03;;
56455;SDS011;42354;53.218;6.564;2023-07-31T01:17:35;7.30;;;4.40;;
56455;SDS011;42354;53.218;6.564;2023-07-31T01:20:02;4.25;;;3.30;;
56455;SDS011;42354;53.218;6.564;2023-07-31T01:28:05;5.68;;;2.83;;
56455;SDS011;42354;53.218;6.564;2023-07-31T01:30:37;6.50;;;3.38;;
56455;SDS011;42354;53.218;6.564;2023-07-31T01:33:06;5.32;;;3.47;;
56455;SDS011;42354;53.218;6.564;2023-07-31T01:35:34;5.80;;;4.40;;
56455;SDS011;42354;53.218;6.564;2023-07-31T01:38:00;7.10;;;4.60;;
56455;SDS011;42354;53.218;6.564;2023-07-31T01:40:26;9.00;;;4.78;;
56455;SDS011;42354;53.218;6.564;2023-07-31T01:42:51;8.50;;;4.93;;
56455;SDS011;42354;53.218;6.564;2023-07-31T01:45:17;8.30;;;4.65;;
56455;SDS011;42354;53.218;6.564;2023-07-31T01:47:43;8.68;;;4.60;;
56455;SDS011;42354;53.218;6.564;2023-07-31T01:50:08;9.23;;;5.13;;
56455;SDS011;42354;53.218;6.564;2023-07-31T01:52:34;7.30;;;4.35;;
56455;SDS011;42354;53.218;6.564;2023-07-31T01:55:00;8.77;;;4.60;;
56455;SDS011;42354;53.218;6.564;2023-07-31T01:57:26;7.43;;;4.25;;
56455;SDS011;42354;53.218;6.564;2023-07-31T01:59:52;6.90;;;4.30;;
56455;SDS011;42354;53.218;6.564;2023-07-31T02:02:18;6.18;;;3.95;;
56455;SDS011;42354;53.218;6.564;2023-07-31T02:04:44;7.50;;;3.95;;
56455;SDS011;42354;53.218;6.564;2023-07-31T02:07:10;4.95;;;3.70;;
56455;SDS011;42354;53.218;6.564;2023-07-31T02:09:36;5.90;;;3.58;;
56455;SDS011;42354;53.218;6.564;2023-07-31T02:12:01;5.60;;;3.42;;
56455;SDS011;42354;53.218;6.564;2023-07-31T02:14:27;6.38;;;3.65;;
56455;SDS011;42354;53.218;6.564;2023-07-31T02:16:52;6.45;;;2.97;;
56455;SDS011;42354;53.218;6.564;2023-07-31T02:19:18;5.57;;;2.75;;
56455;SDS011;42354;53.218;6.564;2023-07-31T02:21:43;4.32;;;2.47;;
56455;SDS011;42354;53.218;6.564;2023-07-31T02:24:08;3.35;;;2.30;;
56455;SDS011;42354;53.218;6.564;2023-07-31T02:26:34;4.50;;;2.42;;
56455;SDS011;42354;53.218;6.564;2023-07-31T02:28:59;4.05;;;2.13;;
56455;SDS011;42354;53.218;6.564;2023-07-31T02:31:24;4.70;;;2.03;;
56455;SDS011;42354;53.218;6.564;2023-07-31T02:33:50;5.82;;;2.38;;
56455;SDS011;42354;53.218;6.564;2023-07-31T02:36:15;5.75;;;2.53;;
56455;SDS011;42354;53.218;6.564;2023-07-31T02:38:41;3.72;;;2.20;;
56455;SDS011;42354;53.218;6.564;2023-07-31T02:41:08;4.72;;;2.13;;
56455;SDS011;42354;53.218;6.564;2023-07-31T02:43:33;2.88;;;2.38;;
56455;SDS011;42354;53.218;6.564;2023-07-31T02:45:59;3.85;;;2.20;;
56455;SDS011;42354;53.218;6.564;2023-07-31T02:48:24;4.55;;;2.10;;
56455;SDS011;42354;53.218;6.564;2023-07-31T02:50:50;5.43;;;2.20;;
56455;SDS011;42354;53.218;6.564;2023-07-31T02:53:15;3.30;;;1.98;;
56455;SDS011;42354;53.218;6.564;2023-07-31T02:55:40;3.33;;;1.88;;
56455;SDS011;42354;53.218;6.564;2023-07-31T02:58:06;3.28;;;1.90;;
56455;SDS011;42354;53.218;6.564;2023-07-31T03:00:31;4.80;;;2.08;;
56455;SDS011;42354;53.218;6.564;2023-07-31T03:02:57;4.85;;;2.00;;
56455;SDS011;42354;53.218;6.564;2023-07-31T03:05:22;4.82;;;1.75;;
56455;SDS011;42354;53.218;6.564;2023-07-31T03:07:47;4.18;;;1.60;;
56455;SDS011;42354;53.218;6.564;2023-07-31T03:10:13;10.38;;;2.17;;
56455;SDS011;42354;53.218;6.564;2023-07-31T03:12:40;3.80;;;1.80;;
56455;SDS011;42354;53.218;6.564;2023-07-31T03:15:05;5.35;;;1.70;;
56455;SDS011;42354;53.218;6.564;2023-07-31T03:17:31;3.88;;;1.67;;
56455;SDS011;42354;53.218;6.564;2023-07-31T03:19:56;3.97;;;1.70;;
56455;SDS011;42354;53.218;6.564;2023-07-31T03:22:22;4.82;;;1.67;;
56455;SDS011;42354;53.218;6.564;2023-07-31T03:24:47;3.50;;;1.70;;
56455;SDS011;42354;53.218;6.564;2023-07-31T03:27:13;1.85;;;1.40;;
56455;SDS011;42354;53.218;6.564;2023-07-31T03:29:38;2.28;;;1.20;;
56455;SDS011;42354;53.218;6.564;2023-07-31T03:32:03;3.65;;;1.30;;
56455;SDS011;42354;53.218;6.564;2023-07-31T03:34:29;3.60;;;1.20;;
56455;SDS011;42354;53.218;6.564;2023-07-31T03:36:57;2.22;;;1.40;;
56455;SDS011;42354;53.218;6.564;2023-07-31T03:39:23;4.03;;;1.38;;
56455;SDS011;42354;53.218;6.564;2023-07-31T03:41:48;3.83;;;1.23;;
56455;SDS011;42354;53.218;6.564;2023-07-31T03:44:13;3.45;;;1.23;;
56455;SDS011;42354;53.218;6.564;2023-07-31T03:46:39;4.28;;;1.23;;
56455;SDS011;42354;53.218;6.564;2023-07-31T03:49:04;3.50;;;1.38;;
56455;SDS011;42354;53.218;6.564;2023-07-31T03:51:30;4.55;;;1.60;;
56455;SDS011;42354;53.218;6.564;2023-07-31T03:53:55;3.13;;;1.40;;
56455;SDS011;42354;53.218;6.564;2023-07-31T03:56:22;4.68;;;1.30;;
56455;SDS011;42354;53.218;6.564;2023-07-31T03:58:47;2.78;;;1.25;;
56455;SDS011;42354;53.218;6.564;2023-07-31T04:01:13;7.65;;;1.40;;
56455;SDS011;42354;53.218;6.564;2023-07-31T04:03:38;6.35;;;1.33;;
56455;SDS011;42354;53.218;6.564;2023-07-31T04:06:04;2.65;;;1.38;;
56455;SDS011;42354;53.218;6.564;2023-07-31T04:08:29;3.15;;;1.40;;
56455;SDS011;42354;53.218;6.564;2023-07-31T04:10:54;3.03;;;1.17;;
56455;SDS011;42354;53.218;6.564;2023-07-31T04:13:21;2.92;;;1.40;;
56455;SDS011;42354;53.218;6.564;2023-07-31T04:15:50;3.67;;;1.40;;
56455;SDS011;42354;53.218;6.564;2023-07-31T04:18:16;2.88;;;1.20;;
56455;SDS011;42354;53.218;6.564;2023-07-31T04:20:41;2.50;;;1.08;;
56455;SDS011;42354;53.218;6.564;2023-07-31T04:23:06;3.45;;;1.42;;
56455;SDS011;42354;53.218;6.564;2023-07-31T04:25:32;3.65;;;1.30;;
56455;SDS011;42354;53.218;6.564;2023-07-31T04:27:59;1.52;;;1.00;;
56455;SDS011;42354;53.218;6.564;2023-07-31T04:30:25;3.45;;;1.30;;
56455;SDS011;42354;53.218;6.564;2023-07-31T04:32:50;3.90;;;1.20;;
56455;SDS011;42354;53.218;6.564;2023-07-31T04:35:16;1.63;;;0.80;;
56455;SDS011;42354;53.218;6.564;2023-07-31T04:37:41;2.13;;;0.90;;
56455;SDS011;42354;53.218;6.564;2023-07-31T04:40:07;3.25;;;1.05;;
56455;SDS011;42354;53.218;6.564;2023-07-31T04:42:33;5.00;;;1.40;;
56455;SDS011;42354;53.218;6.564;2023-07-31T04:44:59;2.28;;;0.90;;
56455;SDS011;42354;53.218;6.564;2023-07-31T04:47:24;1.80;;;0.80;;
56455;SDS011;42354;53.218;6.564;2023-07-31T04:49:50;3.25;;;1.05;;
56455;SDS011;42354;53.218;6.564;2023-07-31T04:52:15;2.78;;;0.90;;
56455;SDS011;42354;53.218;6.564;2023-07-31T04:54:41;2.60;;;0.90;;
56455;SDS011;42354;53.218;6.564;2023-07-31T04:57:07;2.90;;;1.13;;
56455;SDS011;42354;53.218;6.564;2023-07-31T04:59:32;2.42;;;1.10;;
56455;SDS011;42354;53.218;6.564;2023-07-31T05:01:57;3.42;;;0.98;;
56455;SDS011;42354;53.218;6.564;2023-07-31T05:04:23;1.58;;;0.95;;
56455;SDS011;42354;53.218;6.564;2023-07-31T05:06:48;3.30;;;1.33;;
56455;SDS011;42354;53.218;6.564;2023-07-31T05:09:14;1.60;;;0.80;;
56455;SDS011;42354;53.218;6.564;2023-07-31T05:11:39;1.00;;;0.85;;
56455;SDS011;42354;53.218;6.564;2023-07-31T05:14:05;2.33;;;0.85;;
56455;SDS011;42354;53.218;6.564;2023-07-31T05:16:31;3.50;;;0.98;;
56455;SDS011;42354;53.218;6.564;2023-07-31T05:19:03;1.13;;;0.80;;
56455;SDS011;42354;53.218;6.564;2023-07-31T05:21:29;7.45;;;0.90;;
56455;SDS011;42354;53.218;6.564;2023-07-31T05:23:54;4.35;;;0.60;;
56455;SDS011;42354;53.218;6.564;2023-07-31T05:26:20;1.10;;;0.60;;
56455;SDS011;42354;53.218;6.564;2023-07-31T05:28:45;1.30;;;0.50;;
56455;SDS011;42354;53.218;6.564;2023-07-31T05:31:11;3.45;;;1.50;;
56455;SDS011;42354;53.218;6.564;2023-07-31T05:33:36;1.50;;;0.52;;
56455;SDS011;42354;53.218;6.564;2023-07-31T05:36:01;1.13;;;0.40;;
56455;SDS011;42354;53.218;6.564;2023-07-31T05:38:27;5.55;;;0.70;;
56455;SDS011;42354;53.218;6.564;2023-07-31T05:40:52;1.88;;;0.68;;
56455;SDS011;42354;53.218;6.564;2023-07-31T05:43:18;1.40;;;0.80;;
56455;SDS011;42354;53.218;6.564;2023-07-31T05:45:43;2.08;;;0.60;;
56455;SDS011;42354;53.218;6.564;2023-07-31T05:48:08;1.13;;;0.70;;
56455;SDS011;42354;53.218;6.564;2023-07-31T05:50:34;0.88;;;0.77;;
56455;SDS011;42354;53.218;6.564;2023-07-31T05:52:59;4.20;;;0.95;;
56455;SDS011;42354;53.218;6.564;2023-07-31T05:55:25;1.70;;;0.75;;
56455;SDS011;42354;53.218;6.564;2023-07-31T05:57:54;1.30;;;0.70;;
56455;SDS011;42354;53.218;6.564;2023-07-31T06:00:19;1.52;;;0.75;;
56455;SDS011;42354;53.218;6.564;2023-07-31T06:02:46;2.20;;;1.08;;
56455;SDS011;42354;53.218;6.564;2023-07-31T06:05:12;2.22;;;0.90;;
56455;SDS011;42354;53.218;6.564;2023-07-31T06:07:37;2.80;;;1.00;;
56455;SDS011;42354;53.218;6.564;2023-07-31T06:10:03;1.98;;;0.90;;
56455;SDS011;42354;53.218;6.564;2023-07-31T06:12:34;2.03;;;1.10;;
56455;SDS011;42354;53.218;6.564;2023-07-31T06:15:01;3.78;;;1.20;;
56455;SDS011;42354;53.218;6.564;2023-07-31T06:17:27;6.10;;;1.88;;
56455;SDS011;42354;53.218;6.564;2023-07-31T06:19:53;5.90;;;1.55;;
56455;SDS011;42354;53.218;6.564;2023-07-31T06:22:18;4.90;;;1.50;;
56455;SDS011;42354;53.218;6.564;2023-07-31T06:24:44;3.85;;;1.80;;
56455;SDS011;42354;53.218;6.564;2023-07-31T06:27:09;4.95;;;1.77;;
56455;SDS011;42354;53.218;6.564;2023-07-31T06:29:36;9.93;;;2.88;;
56455;SDS011;42354;53.218;6.564;2023-07-31T06:32:01;6.97;;;2.60;;
56455;SDS011;42354;53.218;6.564;2023-07-31T06:34:27;12.70;;;3.28;;
56455;SDS011;42354;53.218;6.564;2023-07-31T06:36:52;12.05;;;3.10;;
56455;SDS011;42354;53.218;6.564;2023-07-31T06:39:17;16.85;;;3.78;;
56455;SDS011;42354;53.218;6.564;2023-07-31T06:41:43;17.70;;;4.32;;
56455;SDS011;42354;53.218;6.564;2023-07-31T06:44:09;18.77;;;4.70;;
56455;SDS011;42354;53.218;6.564;2023-07-31T06:46:35;20.50;;;6.65;;
56455;SDS011;42354;53.218;6.564;2023-07-31T06:49:00;17.02;;;4.70;;
56455;SDS011;42354;53.218;6.564;2023-07-31T06:51:25;16.60;;;5.18;;
56455;SDS011;42354;53.218;6.564;2023-07-31T06:53:51;23.98;;;6.07;;
56455;SDS011;42354;53.218;6.564;2023-07-31T06:56:16;22.75;;;5.85;;
56455;SDS011;42354;53.218;6.564;2023-07-31T06:58:42;15.60;;;5.20;;
56455;SDS011;42354;53.218;6.564;2023-07-31T07:01:08;20.13;;;5.85;;
56455;SDS011;42354;53.218;6.564;2023-07-31T07:03:33;21.65;;;5.57;;
56455;SDS011;42354;53.218;6.564;2023-07-31T07:05:59;21.58;;;6.18;;
56455;SDS011;42354;53.218;6.564;2023-07-31T07:08:24;25.73;;;6.13;;
56455;SDS011;42354;53.218;6.564;2023-07-31T07:10:50;18.77;;;5.75;;
56455;SDS011;42354;53.218;6.564;2023-07-31T07:13:15;23.60;;;6.03;;
56455;SDS011;42354;53.218;6.564;2023-07-31T07:15:43;28.48;;;6.30;;
56455;SDS011;42354;53.218;6.564;2023-07-31T07:18:08;22.52;;;5.40;;
56455;SDS011;42354;53.218;6.564;2023-07-31T07:20:35;17.98;;;5.47;;
56455;SDS011;42354;53.218;6.564;2023-07-31T07:23:01;28.98;;;5.85;;
56455;SDS011;42354;53.218;6.564;2023-07-31T07:25:26;24.23;;;5.75;;
56455;SDS011;42354;53.218;6.564;2023-07-31T07:27:52;24.23;;;5.40;;
56455;SDS011;42354;53.218;6.564;2023-07-31T07:30:18;25.35;;;6.03;;
56455;SDS011;42354;53.218;6.564;2023-07-31T07:32:44;25.58;;;6.28;;
56455;SDS011;42354;53.218;6.564;2023-07-31T07:35:10;21.15;;;6.88;;
56455;SDS011;42354;53.218;6.564;2023-07-31T07:37:35;21.70;;;6.28;;
56455;SDS011;42354;53.218;6.564;2023-07-31T07:40:01;21.65;;;6.20;;
56455;SDS011;42354;53.218;6.564;2023-07-31T07:42:26;21.60;;;6.93;;
56455;SDS011;42354;53.218;6.564;2023-07-31T07:44:51;20.05;;;7.15;;
56455;SDS011;42354;53.218;6.564;2023-07-31T07:47:17;26.67;;;7.05;;
56455;SDS011;42354;53.218;6.564;2023-07-31T07:49:42;25.55;;;7.35;;
56455;SDS011;42354;53.218;6.564;2023-07-31T07:52:07;17.42;;;5.63;;
56455;SDS011;42354;53.218;6.564;2023-07-31T07:54:33;16.05;;;5.68;;
56455;SDS011;42354;53.218;6.564;2023-07-31T07:56:58;8.02;;;3.28;;
56455;SDS011;42354;53.218;6.564;2023-07-31T07:59:24;7.05;;;2.50;;
56455;SDS011;42354;53.218;6.564;2023-07-31T08:01:49;3.63;;;1.60;;
56455;SDS011;42354;53.218;6.564;2023-07-31T08:04:15;4.93;;;1.63;;
56455;SDS011;42354;53.218;6.564;2023-07-31T08:06:40;6.93;;;2.15;;
56455;SDS011;42354;53.218;6.564;2023-07-31T08:09:06;3.17;;;1.33;;
56455;SDS011;42354;53.218;6.564;2023-07-31T08:11:34;3.20;;;1.17;;
56455;SDS011;42354;53.218;6.564;2023-07-31T08:14:00;2.15;;;0.90;;
56455;SDS011;42354;53.218;6.564;2023-07-31T08:16:25;2.13;;;0.93;;
56455;SDS011;42354;53.218;6.564;2023-07-31T08:18:51;2.92;;;1.00;;
56455;SDS011;42354;53.218;6.564;2023-07-31T08:21:16;5.50;;;2.05;;
56455;SDS011;42354;53.218;6.564;2023-07-31T08:23:42;3.60;;;1.20;;
56455;SDS011;42354;53.218;6.564;2023-07-31T08:26:07;2.60;;;1.08;;
56455;SDS011;42354;53.218;6.564;2023-07-31T08:28:32;4.75;;;1.65;;
56455;SDS011;42354;53.218;6.564;2023-07-31T08:30:58;1.70;;;1.02;;
56455;SDS011;42354;53.218;6.564;2023-07-31T08:33:23;2.28;;;1.20;;
56455;SDS011;42354;53.218;6.564;2023-07-31T08:35:49;4.68;;;1.40;;
56455;SDS011;42354;53.218;6.564;2023-07-31T08:38:14;2.08;;;1.30;;
56455;SDS011;42354;53.218;6.564;2023-07-31T08:40:40;2.85;;;1.10;;
56455;SDS011;42354;53.218;6.564;2023-07-31T08:43:06;1.55;;;0.88;;
56455;SDS011;42354;53.218;6.564;2023-07-31T08:45:32;1.70;;;0.98;;
56455;SDS011;42354;53.218;6.564;2023-07-31T08:47:58;1.48;;;0.73;;
56455;SDS011;42354;53.218;6.564;2023-07-31T08:50:24;1.30;;;0.80;;
56455;SDS011;42354;53.218;6.564;2023-07-31T08:52:50;1.38;;;0.80;;
56455;SDS011;42354;53.218;6.564;2023-07-31T08:55:16;2.35;;;0.80;;
56455;SDS011;42354;53.218;6.564;2023-07-31T08:57:43;0.90;;;0.60;;
56455;SDS011;42354;53.218;6.564;2023-07-31T09:00:09;0.82;;;0.70;;
56455;SDS011;42354;53.218;6.564;2023-07-31T09:05:08;1.45;;;0.80;;
56455;SDS011;42354;53.218;6.564;2023-07-31T09:07:35;1.55;;;0.80;;
56455;SDS011;42354;53.218;6.564;2023-07-31T09:10:01;1.40;;;0.60;;
56455;SDS011;42354;53.218;6.564;2023-07-31T09:12:28;1.00;;;0.70;;
56455;SDS011;42354;53.218;6.564;2023-07-31T09:14:54;1.05;;;0.77;;
56455;SDS011;42354;53.218;6.564;2023-07-31T09:17:30;1.77;;;0.73;;
56455;SDS011;42354;53.218;6.564;2023-07-31T09:22:38;3.05;;;0.90;;
56455;SDS011;42354;53.218;6.564;2023-07-31T09:25:17;0.90;;;0.70;;
56455;SDS011;42354;53.218;6.564;2023-07-31T09:27:51;1.02;;;0.70;;
56455;SDS011;42354;53.218;6.564;2023-07-31T09:30:18;1.25;;;0.70;;
56455;SDS011;42354;53.218;6.564;2023-07-31T09:32:44;2.35;;;1.00;;
56455;SDS011;42354;53.218;6.564;2023-07-31T09:35:20;2.95;;;0.70;;
56455;SDS011;42354;53.218;6.564;2023-07-31T09:37:48;2.05;;;0.80;;
56455;SDS011;42354;53.218;6.564;2023-07-31T09:40:25;1.20;;;0.70;;
56455;SDS011;42354;53.218;6.564;2023-07-31T09:42:59;1.13;;;0.70;;
56455;SDS011;42354;53.218;6.564;2023-07-31T09:45:29;0.60;;;0.50;;
56455;SDS011;42354;53.218;6.564;2023-07-31T09:47:55;0.68;;;0.68;;
56455;SDS011;42354;53.218;6.564;2023-07-31T09:50:22;1.10;;;0.50;;
56455;SDS011;42354;53.218;6.564;2023-07-31T09:52:49;1.95;;;0.77;;
56455;SDS011;42354;53.218;6.564;2023-07-31T09:55:15;0.82;;;0.63;;
56455;SDS011;42354;53.218;6.564;2023-07-31T09:57:42;2.35;;;0.70;;
56455;SDS011;42354;53.218;6.564;2023-07-31T10:00:09;1.30;;;0.43;;
56455;SDS011;42354;53.218;6.564;2023-07-31T10:02:36;0.85;;;0.35;;
56455;SDS011;42354;53.218;6.564;2023-07-31T10:05:03;1.08;;;0.20;;
56455;SDS011;42354;53.218;6.564;2023-07-31T10:07:30;1.73;;;0.20;;
56455;SDS011;42354;53.218;6.564;2023-07-31T10:10:00;1.55;;;0.40;;
56455;SDS011;42354;53.218;6.564;2023-07-31T10:12:26;1.08;;;0.30;;
56455;SDS011;42354;53.218;6.564;2023-07-31T10:14:56;0.57;;;0.30;;
56455;SDS011;42354;53.218;6.564;2023-07-31T10:17:24;0.57;;;0.20;;
56455;SDS011;42354;53.218;6.564;2023-07-31T10:19:50;0.82;;;0.30;;
56455;SDS011;42354;53.218;6.564;2023-07-31T10:22:18;0.65;;;0.20;;
56455;SDS011;42354;53.218;6.564;2023-07-31T10:24:45;0.47;;;0.30;;
56455;SDS011;42354;53.218;6.564;2023-07-31T10:27:11;0.20;;;0.10;;
56455;SDS011;42354;53.218;6.564;2023-07-31T10:29:41;1.13;;;0.50;;
56455;SDS011;42354;53.218;6.564;2023-07-31T10:32:08;0.95;;;0.20;;
56455;SDS011;42354;53.218;6.564;2023-07-31T10:34:37;0.13;;;0.10;;
56455;SDS011;42354;53.218;6.564;2023-07-31T10:37:23;0.55;;;0.28;;
56455;SDS011;42354;53.218;6.564;2023-07-31T10:39:59;0.50;;;0.20;;
56455;SDS011;42354;53.218;6.564;2023-07-31T10:42:30;0.40;;;0.20;;
56455;SDS011;42354;53.218;6.564;2023-07-31T10:44:58;0.82;;;0.30;;
56455;SDS011;42354;53.218;6.564;2023-07-31T10:47:25;0.95;;;0.40;;
56455;SDS011;42354;53.218;6.564;2023-07-31T10:49:50;0.75;;;0.30;;
56455;SDS011;42354;53.218;6.564;2023-07-31T10:52:19;1.20;;;0.40;;
56455;SDS011;42354;53.218;6.564;2023-07-31T10:55:09;1.95;;;0.30;;
56455;SDS011;42354;53.218;6.564;2023-07-31T10:57:44;2.83;;;0.43;;
56455;SDS011;42354;53.218;6.564;2023-07-31T11:00:19;0.47;;;0.30;;
56455;SDS011;42354;53.218;6.564;2023-07-31T11:10:48;1.98;;;0.68;;
56455;SDS011;42354;53.218;6.564;2023-07-31T11:13:29;1.75;;;0.80;;
56455;SDS011;42354;53.218;6.564;2023-07-31T11:15:56;2.47;;;0.90;;
56455;SDS011;42354;53.218;6.564;2023-07-31T11:18:21;1.75;;;0.70;;
56455;SDS011;42354;53.218;6.564;2023-07-31T11:20:47;1.48;;;0.65;;
56455;SDS011;42354;53.218;6.564;2023-07-31T11:23:16;1.23;;;0.50;;
56455;SDS011;42354;53.218;6.564;2023-07-31T11:25:42;3.47;;;0.88;;
56455;SDS011;42354;53.218;6.564;2023-07-31T11:28:12;1.77;;;0.95;;
56455;SDS011;42354;53.218;6.564;2023-07-31T11:30:39;1.35;;;0.70;;
56455;SDS011;42354;53.218;6.564;2023-07-31T11:33:06;0.90;;;0.50;;
56455;SDS011;42354;53.218;6.564;2023-07-31T11:35:40;0.88;;;0.60;;
56455;SDS011;42354;53.218;6.564;2023-07-31T11:38:07;1.02;;;0.70;;
56455;SDS011;42354;53.218;6.564;2023-07-31T11:40:40;1.80;;;0.90;;
56455;SDS011;42354;53.218;6.564;2023-07-31T11:43:07;6.30;;;0.80;;
56455;SDS011;42354;53.218;6.564;2023-07-31T11:45:33;4.57;;;0.98;;
56455;SDS011;42354;53.218;6.564;2023-07-31T11:48:00;2.22;;;0.80;;
56455;SDS011;42354;53.218;6.564;2023-07-31T11:50:26;4.90;;;1.10;;
56455;SDS011;42354;53.218;6.564;2023-07-31T11:52:59;2.35;;;1.08;;
56455;SDS011;42354;53.218;6.564;2023-07-31T11:55:28;6.40;;;0.90;;
56455;SDS011;42354;53.218;6.564;2023-07-31T11:57:54;2.63;;;0.80;;
56455;SDS011;42354;53.218;6.564;2023-07-31T12:00:22;3.08;;;1.20;;
56455;SDS011;42354;53.218;6.564;2023-07-31T12:02:48;4.95;;;1.13;;
56455;SDS011;42354;53.218;6.564;2023-07-31T12:05:15;3.15;;;1.10;;
56455;SDS011;42354;53.218;6.564;2023-07-31T12:07:47;2.80;;;1.38;;
56455;SDS011;42354;53.218;6.564;2023-07-31T12:10:25;4.13;;;1.40;;
56455;SDS011;42354;53.218;6.564;2023-07-31T12:15:30;4.80;;;1.00;;
56455;SDS011;42354;53.218;6.564;2023-07-31T12:17:58;1.55;;;1.02;;
56455;SDS011;42354;53.218;6.564;2023-07-31T12:20:24;3.22;;;1.23;;
56455;SDS011;42354;53.218;6.564;2023-07-31T12:22:49;2.03;;;1.00;;
56455;SDS011;42354;53.218;6.564;2023-07-31T12:25:15;1.95;;;1.10;;
56455;SDS011;42354;53.218;6.564;2023-07-31T12:27:44;1.20;;;1.10;;
56455;SDS011;42354;53.218;6.564;2023-07-31T12:32:54;4.10;;;1.50;;
56455;SDS011;42354;53.218;6.564;2023-07-31T12:35:20;2.58;;;1.10;;
56455;SDS011;42354;53.218;6.564;2023-07-31T12:37:45;1.60;;;0.93;;
56455;SDS011;42354;53.218;6.564;2023-07-31T12:40:10;3.25;;;1.17;;
56455;SDS011;42354;53.218;6.564;2023-07-31T12:42:36;4.18;;;1.30;;
56455;SDS011;42354;53.218;6.564;2023-07-31T12:45:02;3.20;;;1.27;;
56455;SDS011;42354;53.218;6.564;2023-07-31T12:47:28;3.50;;;1.40;;
56455;SDS011;42354;53.218;6.564;2023-07-31T12:49:55;1.88;;;1.23;;
56455;SDS011;42354;53.218;6.564;2023-07-31T12:52:20;2.95;;;1.00;;
56455;SDS011;42354;53.218;6.564;2023-07-31T12:54:46;3.58;;;1.77;;
56455;SDS011;42354;53.218;6.564;2023-07-31T12:57:11;3.75;;;1.25;;
56455;SDS011;42354;53.218;6.564;2023-07-31T12:59:37;3.97;;;1.58;;
56455;SDS011;42354;53.218;6.564;2023-07-31T13:02:02;3.85;;;1.70;;
56455;SDS011;42354;53.218;6.564;2023-07-31T13:04:28;4.38;;;1.45;;
56455;SDS011;42354;53.218;6.564;2023-07-31T13:06:53;5.20;;;1.40;;
56455;SDS011;42354;53.218;6.564;2023-07-31T13:09:18;6.63;;;1.60;;
56455;SDS011;42354;53.218;6.564;2023-07-31T13:11:44;4.13;;;1.65;;
56455;SDS011;42354;53.218;6.564;2023-07-31T13:14:09;5.90;;;1.77;;
56455;SDS011;42354;53.218;6.564;2023-07-31T13:16:36;6.20;;;1.80;;
56455;SDS011;42354;53.218;6.564;2023-07-31T13:19:01;5.82;;;1.70;;
56455;SDS011;42354;53.218;6.564;2023-07-31T13:21:26;5.43;;;2.15;;
56455;SDS011;42354;53.218;6.564;2023-07-31T13:23:52;4.30;;;1.85;;
56455;SDS011;42354;53.218;6.564;2023-07-31T13:26:17;8.80;;;1.80;;
56455;SDS011;42354;53.218;6.564;2023-07-31T13:28:42;9.10;;;1.67;;
56455;SDS011;42354;53.218;6.564;2023-07-31T13:31:08;7.70;;;2.03;;
56455;SDS011;42354;53.218;6.564;2023-07-31T13:33:33;8.10;;;1.85;;
56455;SDS011;42354;53.218;6.564;2023-07-31T13:35:59;8.52;;;2.22;;
56455;SDS011;42354;53.218;6.564;2023-07-31T13:38:24;7.47;;;1.98;;
56455;SDS011;42354;53.218;6.564;2023-07-31T13:40:49;7.70;;;2.67;;
56455;SDS011;42354;53.218;6.564;2023-07-31T13:43:15;6.13;;;2.08;;
56455;SDS011;42354;53.218;6.564;2023-07-31T13:45:40;12.77;;;2.15;;
56455;SDS011;42354;53.218;6.564;2023-07-31T13:48:05;7.55;;;2.08;;
56455;SDS011;42354;53.218;6.564;2023-07-31T13:50:32;8.80;;;1.95;;
56455;SDS011;42354;53.218;6.564;2023-07-31T13:52:57;11.70;;;2.28;;
56455;SDS011;42354;53.218;6.564;2023-07-31T13:55:22;8.75;;;1.75;;
56455;SDS011;42354;53.218;6.564;2023-07-31T13:57:48;6.32;;;2.55;;
56455;SDS011;42354;53.218;6.564;2023-07-31T14:00:13;7.80;;;2.05;;
56455;SDS011;42354;53.218;6.564;2023-07-31T14:02:39;9.10;;;2.50;;
56455;SDS011;42354;53.218;6.564;2023-07-31T14:05:04;10.75;;;2.88;;
56455;SDS011;42354;53.218;6.564;2023-07-31T14:07:31;5.18;;;1.90;;
56455;SDS011;42354;53.218;6.564;2023-07-31T14:09:57;7.97;;;1.95;;
56455;SDS011;42354;53.218;6.564;2023-07-31T14:12:22;6.88;;;2.20;;
56455;SDS011;42354;53.218;6.564;2023-07-31T14:14:48;8.73;;;3.20;;
56455;SDS011;42354;53.218;6.564;2023-07-31T14:17:13;7.32;;;2.15;;
56455;SDS011;42354;53.218;6.564;2023-07-31T14:19:39;6.10;;;2.20;;
56455;SDS011;42354;53.218;6.564;2023-07-31T14:22:04;6.15;;;2.20;;
56455;SDS011;42354;53.218;6.564;2023-07-31T14:24:29;7.97;;;2.78;;
56455;SDS011;42354;53.218;6.564;2023-07-31T14:26:55;7.20;;;2.40;;
56455;SDS011;42354;53.218;6.564;2023-07-31T14:29:20;5.75;;;2.17;;
56455;SDS011;42354;53.218;6.564;2023-07-31T14:31:46;7.30;;;2.20;;
56455;SDS011;42354;53.218;6.564;2023-07-31T14:34:11;6.03;;;2.72;;
56455;SDS011;42354;53.218;6.564;2023-07-31T14:36:37;4.00;;;2.45;;
56455;SDS011;42354;53.218;6.564;2023-07-31T14:39:02;5.93;;;2.40;;
56455;SDS011;42354;53.218;6.564;2023-07-31T14:41:28;7.25;;;2.70;;
56455;SDS011;42354;53.218;6.564;2023-07-31T14:43:53;5.45;;;2.65;;
56455;SDS011;42354;53.218;6.564;2023-07-31T14:46:19;14.88;;;2.78;;
56455;SDS011;42354;53.218;6.564;2023-07-31T14:48:44;8.40;;;2.75;;
56455;SDS011;42354;53.218;6.564;2023-07-31T14:51:09;6.40;;;2.97;;
56455;SDS011;42354;53.218;6.564;2023-07-31T14:53:35;8.80;;;2.33;;
56455;SDS011;42354;53.218;6.564;2023-07-31T14:56:00;6.88;;;2.72;;
56455;SDS011;42354;53.218;6.564;2023-07-31T14:58:26;7.40;;;2.33;;
56455;SDS011;42354;53.218;6.564;2023-07-31T15:00:51;7.72;;;2.90;;
56455;SDS011;42354;53.218;6.564;2023-07-31T15:03:16;12.02;;;3.53;;
56455;SDS011;42354;53.218;6.564;2023-07-31T15:05:42;9.55;;;3.15;;